createdAt,value
2023-06-21T00:00:00.776Z,21.10
2023-06-21T00:02:29.691Z,20.98
2023-06-21T00:04:56.946Z,22.63
2023-06-21T00:07:25.304Z,21.83
2023-06-21T00:09:53.557Z,22.65
2023-06-21T00:12:21.369Z,22.05
2023-06-21T00:14:48.454Z,22.42
2023-06-21T00:17:15.496Z,21.58
2023-06-21T00:19:42.426Z,22.58
2023-06-21T00:22:09.378Z,22.40
2023-06-21T00:24:36.418Z,22.55
2023-06-21T00:27:03.550Z,22.95
2023-06-21T00:29:30.499Z,22.65
2023-06-21T00:31:59.663Z,23.20
2023-06-21T00:34:26.626Z,22.88
2023-06-21T00:36:54.154Z,22.75
2023-06-21T00:39:21.695Z,23.80
2023-06-21T00:41:49.647Z,23.30
2023-06-21T00:44:16.634Z,25.70
2023-06-21T00:46:43.645Z,24.60
2023-06-21T00:49:10.898Z,25.30
2023-06-21T00:51:40.152Z,25.40
2023-06-21T00:54:07.276Z,23.63
2023-06-21T00:56:37.100Z,24.67
2023-06-21T00:59:05.734Z,24.33
2023-06-21T01:01:33.329Z,24.38
2023-06-21T01:04:01.456Z,23.67
2023-06-21T01:06:51.664Z,22.88
2023-06-21T01:09:33.260Z,23.60
2023-06-21T01:12:41.841Z,24.52
2023-06-21T01:15:16.675Z,25.83
2023-06-21T01:17:46.708Z,25.05
2023-06-21T01:20:19.698Z,23.63
2023-06-21T01:22:52.559Z,24.42
2023-06-21T01:25:39.090Z,25.42
2023-06-21T01:28:21.765Z,25.67
2023-06-21T01:30:50.209Z,26.30
2023-06-21T01:33:21.171Z,27.25
2023-06-21T01:35:50.013Z,27.33
2023-06-21T01:38:17.218Z,29.15
2023-06-21T01:40:44.104Z,29.48
2023-06-21T01:43:11.419Z,27.85
2023-06-21T01:45:39.230Z,27.88
2023-06-21T01:48:07.105Z,30.17
2023-06-21T01:50:35.830Z,29.58
2023-06-21T01:53:04.158Z,29.67
2023-06-21T01:55:32.206Z,28.83
2023-06-21T01:57:59.397Z,31.15
2023-06-21T02:00:28.497Z,30.67
2023-06-21T02:03:04.476Z,30.85
2023-06-21T02:05:33.715Z,29.60
2023-06-21T02:08:01.607Z,29.45
2023-06-21T02:10:29.199Z,30.17
2023-06-21T02:12:56.484Z,29.70
2023-06-21T02:15:24.361Z,30.38
2023-06-21T02:17:52.718Z,29.02
2023-06-21T02:20:22.005Z,32.70
2023-06-21T02:22:49.493Z,30.95
2023-06-21T02:25:17.657Z,30.85
2023-06-21T02:27:44.711Z,32.00
2023-06-21T02:30:12.121Z,31.85
2023-06-21T02:32:39.290Z,31.23
2023-06-21T02:35:07.064Z,30.83
2023-06-21T02:37:34.036Z,28.63
2023-06-21T02:40:07.237Z,28.42
2023-06-21T02:42:34.156Z,29.25
2023-06-21T02:45:01.627Z,30.35
2023-06-21T02:47:28.650Z,29.20
2023-06-21T02:49:55.589Z,30.48
2023-06-21T02:52:22.615Z,28.70
2023-06-21T02:54:49.577Z,27.98
2023-06-21T02:57:16.501Z,27.83
2023-06-21T02:59:43.968Z,28.48
2023-06-21T03:02:11.285Z,31.58
2023-06-21T03:04:38.217Z,32.03
2023-06-21T03:07:06.363Z,31.23
2023-06-21T03:09:33.841Z,31.48
2023-06-21T03:12:04.640Z,31.55
2023-06-21T03:14:31.542Z,32.13
2023-06-21T03:16:58.529Z,31.98
2023-06-21T03:19:25.451Z,31.38
2023-06-21T03:21:52.381Z,30.95
2023-06-21T03:24:19.415Z,29.55
2023-06-21T03:26:46.410Z,30.48
2023-06-21T03:29:13.320Z,31.13
2023-06-21T03:31:40.312Z,30.42
2023-06-21T03:34:07.235Z,30.30
2023-06-21T03:36:34.173Z,31.23
2023-06-21T03:39:01.497Z,31.23
2023-06-21T03:41:28.413Z,30.48
2023-06-21T03:43:55.448Z,28.48
2023-06-21T03:46:22.408Z,26.90
2023-06-21T03:48:52.523Z,25.77
2023-06-21T03:51:20.089Z,26.25
2023-06-21T03:53:47.164Z,25.05
2023-06-21T03:56:14.081Z,24.25
2023-06-21T03:58:43.121Z,23.75
2023-06-21T04:01:10.094Z,21.33
2023-06-21T04:03:37.056Z,21.02
2023-06-21T04:06:04.087Z,22.20
2023-06-21T04:08:31.044Z,22.15
2023-06-21T04:10:57.963Z,21.77
2023-06-21T04:13:24.977Z,21.48
2023-06-21T04:15:52.004Z,21.17
2023-06-21T04:18:18.939Z,21.90
2023-06-21T04:20:47.584Z,19.35
2023-06-21T04:23:14.566Z,19.48
2023-06-21T04:25:41.786Z,18.55
2023-06-21T04:28:11.318Z,17.80
2023-06-21T04:30:38.334Z,17.35
2023-06-21T04:33:05.605Z,16.65
2023-06-21T04:35:34.565Z,15.32
2023-06-21T04:38:01.569Z,16.25
2023-06-21T04:40:28.580Z,16.10
2023-06-21T04:42:59.816Z,16.27
2023-06-21T04:45:27.497Z,14.98
2023-06-21T04:47:59.067Z,14.73
2023-06-21T04:50:27.246Z,14.30
2023-06-21T04:52:59.820Z,14.18
2023-06-21T04:55:28.589Z,14.13
2023-06-21T04:57:56.914Z,13.60
2023-06-21T05:00:24.017Z,13.73
2023-06-21T05:02:51.237Z,13.98
2023-06-21T05:05:18.541Z,13.77
2023-06-21T05:07:45.578Z,14.10
2023-06-21T05:10:12.651Z,14.88
2023-06-21T05:12:39.643Z,15.32
2023-06-21T05:15:07.462Z,14.70
2023-06-21T05:17:35.704Z,16.15
2023-06-21T05:20:06.388Z,19.60
2023-06-21T05:22:33.590Z,21.08
2023-06-21T05:25:03.334Z,21.48
2023-06-21T05:27:31.177Z,20.50
2023-06-21T05:29:58.079Z,19.60
2023-06-21T05:32:27.212Z,19.35
2023-06-21T05:34:54.824Z,20.25
2023-06-21T05:37:21.807Z,16.63
2023-06-21T05:39:48.820Z,14.88
2023-06-21T05:42:15.785Z,15.77
2023-06-21T05:44:42.738Z,15.75
2023-06-21T05:47:09.884Z,16.08
2023-06-21T05:49:36.876Z,15.23
2023-06-21T05:52:04.048Z,14.00
2023-06-21T05:54:31.022Z,14.45
2023-06-21T05:56:58.025Z,14.60
2023-06-21T05:59:24.936Z,14.88
2023-06-21T06:01:52.844Z,13.50
2023-06-21T06:04:19.801Z,13.23
2023-06-21T06:06:47.983Z,13.10
2023-06-21T06:09:14.992Z,13.43
2023-06-21T06:11:41.886Z,14.18
2023-06-21T06:14:12.236Z,13.93
2023-06-21T06:16:39.958Z,13.68
2023-06-21T06:19:07.398Z,13.90
2023-06-21T06:21:34.421Z,13.88
2023-06-21T06:24:01.355Z,12.93
2023-06-21T06:26:28.985Z,12.07
2023-06-21T06:28:56.994Z,11.93
2023-06-21T06:31:25.512Z,11.57
2023-06-21T06:33:52.509Z,10.90
2023-06-21T06:36:19.926Z,11.00
2023-06-21T06:38:48.592Z,11.90
2023-06-21T06:41:15.955Z,11.15
2023-06-21T06:43:43.077Z,11.27
2023-06-21T06:46:10.151Z,10.38
2023-06-21T06:48:37.551Z,11.77
2023-06-21T06:51:04.818Z,11.48
2023-06-21T06:53:31.749Z,11.23
2023-06-21T06:56:00.757Z,11.10
2023-06-21T06:58:31.711Z,10.20
2023-06-21T07:00:58.870Z,10.88
2023-06-21T07:03:25.940Z,10.10
2023-06-21T07:05:53.221Z,10.32
2023-06-21T07:08:20.195Z,9.88
2023-06-21T07:10:47.522Z,10.57
2023-06-21T07:13:14.722Z,11.23
2023-06-21T07:15:41.666Z,10.38
2023-06-21T07:18:08.682Z,10.70
2023-06-21T07:20:36.433Z,11.50
2023-06-21T07:23:04.318Z,10.70
2023-06-21T07:25:31.464Z,10.45
2023-06-21T07:27:58.573Z,10.60
2023-06-21T07:30:26.166Z,10.27
2023-06-21T07:32:53.493Z,9.50
2023-06-21T07:35:20.605Z,10.23
2023-06-21T07:37:47.679Z,10.32
2023-06-21T07:40:15.070Z,10.43
2023-06-21T07:42:42.192Z,10.23
2023-06-21T07:45:10.192Z,9.77
2023-06-21T07:47:37.853Z,11.88
2023-06-21T07:50:20.874Z,10.27
2023-06-21T07:52:48.749Z,9.98
2023-06-21T07:55:15.900Z,10.68
2023-06-21T07:57:43.286Z,10.10
2023-06-21T08:00:13.495Z,10.90
2023-06-21T08:02:42.896Z,11.10
2023-06-21T08:05:10.019Z,10.90
2023-06-21T08:07:37.411Z,10.27
2023-06-21T08:10:04.600Z,9.82
2023-06-21T08:12:31.649Z,9.95
2023-06-21T08:14:58.724Z,10.40
2023-06-21T08:17:25.711Z,10.95
2023-06-21T08:19:52.781Z,10.38
2023-06-21T08:22:19.792Z,9.98
2023-06-21T08:24:46.735Z,10.68
2023-06-21T08:27:15.354Z,10.15
2023-06-21T08:29:42.320Z,11.18
2023-06-21T08:32:09.389Z,10.10
2023-06-21T08:34:36.375Z,9.88
2023-06-21T08:37:03.336Z,9.25
2023-06-21T08:39:32.249Z,9.05
2023-06-21T08:41:59.867Z,9.88
2023-06-21T08:44:26.898Z,9.60
2023-06-21T08:46:56.588Z,9.60
2023-06-21T08:49:27.150Z,9.05
2023-06-21T08:51:54.812Z,9.35
2023-06-21T08:54:25.873Z,10.52
2023-06-21T08:57:10.907Z,9.43
2023-06-21T08:59:51.272Z,10.02
2023-06-21T09:04:53.407Z,9.00
2023-06-21T09:07:22.437Z,9.70
2023-06-21T09:09:51.947Z,10.00
2023-06-21T09:12:19.414Z,10.10
2023-06-21T09:14:47.304Z,8.93
2023-06-21T09:17:15.333Z,8.80
2023-06-21T09:19:43.790Z,8.60
2023-06-21T09:22:12.850Z,9.48
2023-06-21T09:24:39.963Z,8.70
2023-06-21T09:27:06.906Z,7.40
2023-06-21T09:29:34.058Z,7.72
2023-06-21T09:32:03.190Z,8.35
2023-06-21T09:34:30.152Z,8.52
2023-06-21T09:36:57.220Z,7.07
2023-06-21T09:39:28.802Z,7.20
2023-06-21T09:41:57.365Z,7.30
2023-06-21T09:44:24.811Z,7.30
2023-06-21T09:46:59.820Z,7.15
2023-06-21T09:49:30.117Z,7.40
2023-06-21T09:51:57.629Z,7.85
2023-06-21T09:54:24.733Z,7.22
2023-06-21T09:56:51.710Z,7.75
2023-06-21T09:59:21.435Z,8.00
2023-06-21T10:01:51.080Z,7.87
2023-06-21T10:04:18.996Z,7.93
2023-06-21T10:06:52.985Z,8.02
2023-06-21T10:09:20.154Z,7.97
2023-06-21T10:11:49.887Z,8.07
2023-06-21T10:14:24.665Z,7.73
2023-06-21T10:16:55.145Z,7.95
2023-06-21T10:19:23.951Z,8.40
2023-06-21T10:22:21.623Z,8.48
2023-06-21T10:24:51.011Z,8.38
2023-06-21T10:27:20.217Z,8.55
2023-06-21T10:30:00.563Z,8.48
2023-06-21T10:32:29.756Z,7.78
2023-06-21T10:35:16.772Z,8.18
2023-06-21T10:38:04.430Z,8.02
2023-06-21T10:40:32.107Z,7.55
2023-06-21T10:43:00.053Z,7.78
2023-06-21T10:45:29.929Z,8.10
2023-06-21T10:47:57.522Z,7.43
2023-06-21T10:50:25.835Z,8.00
2023-06-21T10:52:57.188Z,7.43
2023-06-21T10:55:24.573Z,7.18
2023-06-21T10:57:56.411Z,7.13
2023-06-21T11:00:26.037Z,7.35
2023-06-21T11:02:54.788Z,6.78
2023-06-21T11:05:26.398Z,6.72
2023-06-21T11:07:59.613Z,6.60
2023-06-21T11:10:43.389Z,6.38
2023-06-21T11:13:11.974Z,6.75
2023-06-21T11:15:40.910Z,6.45
2023-06-21T11:18:10.774Z,6.38
2023-06-21T11:20:48.454Z,6.28
2023-06-21T11:23:20.404Z,6.90
2023-06-21T11:26:14.730Z,6.00
2023-06-21T11:28:45.717Z,6.00
2023-06-21T11:31:15.834Z,5.70
2023-06-21T11:33:54.896Z,6.03
2023-06-21T11:36:30.721Z,6.05
2023-06-21T11:39:20.672Z,5.00
2023-06-21T11:41:48.339Z,4.78
2023-06-21T11:44:21.248Z,5.60
2023-06-21T11:46:50.394Z,5.90
2023-06-21T11:49:17.694Z,6.38
2023-06-21T11:52:03.654Z,6.30
2023-06-21T11:54:31.845Z,7.43
2023-06-21T11:56:59.134Z,8.10
2023-06-21T11:59:27.405Z,8.07
2023-06-21T12:01:54.960Z,7.28
2023-06-21T12:04:29.245Z,7.68
2023-06-21T12:06:59.050Z,6.75
2023-06-21T12:09:27.649Z,7.88
2023-06-21T12:11:54.657Z,7.78
2023-06-21T12:14:21.723Z,7.85
2023-06-21T12:16:51.195Z,7.57
2023-06-21T12:19:22.534Z,6.55
2023-06-21T12:21:49.921Z,6.13
2023-06-21T12:24:29.868Z,6.85
2023-06-21T12:26:58.819Z,7.57
2023-06-21T12:29:28.549Z,7.50
2023-06-21T12:31:58.740Z,7.40
2023-06-21T12:34:26.524Z,7.45
2023-06-21T12:36:56.131Z,6.68
2023-06-21T12:39:24.271Z,7.45
2023-06-21T12:41:51.454Z,7.40
2023-06-21T12:44:24.492Z,7.22
2023-06-21T12:46:53.306Z,7.32
2023-06-21T12:49:20.299Z,7.88
2023-06-21T12:51:48.539Z,7.60
2023-06-21T12:54:21.433Z,7.93
2023-06-21T12:56:59.945Z,7.88
2023-06-21T12:59:28.184Z,7.93
2023-06-21T13:01:57.310Z,7.05
2023-06-21T13:04:24.503Z,6.28
2023-06-21T13:06:51.705Z,6.32
2023-06-21T13:09:18.855Z,6.90
2023-06-21T13:11:47.146Z,7.43
2023-06-21T13:14:14.785Z,8.48
2023-06-21T13:16:41.779Z,7.72
2023-06-21T13:19:08.853Z,8.18
2023-06-21T13:21:35.882Z,7.85
2023-06-21T13:24:04.283Z,7.75
2023-06-21T13:26:31.585Z,7.40
2023-06-21T13:28:58.552Z,8.05
2023-06-21T13:31:26.617Z,7.82
2023-06-21T13:33:54.876Z,8.38
2023-06-21T13:36:24.335Z,7.93
2023-06-21T13:38:51.379Z,8.30
2023-06-21T13:41:18.496Z,8.15
2023-06-21T13:43:45.610Z,8.55
2023-06-21T13:46:12.813Z,8.57
2023-06-21T13:48:39.917Z,8.77
2023-06-21T13:51:06.911Z,9.20
2023-06-21T13:53:33.867Z,8.52
2023-06-21T13:56:00.920Z,8.90
2023-06-21T13:58:27.870Z,8.75
2023-06-21T14:00:54.916Z,9.10
2023-06-21T14:03:22.087Z,9.20
2023-06-21T14:05:49.719Z,8.73
2023-06-21T14:08:18.028Z,8.75
2023-06-21T14:10:45.852Z,9.57
2023-06-21T14:13:14.733Z,8.75
2023-06-21T14:15:41.836Z,8.45
2023-06-21T14:18:11.063Z,8.95
2023-06-21T14:20:39.191Z,9.10
2023-06-21T14:23:06.233Z,9.40
2023-06-21T14:25:33.844Z,8.38
2023-06-21T14:28:00.898Z,8.50
2023-06-21T14:30:28.120Z,9.15
2023-06-21T14:32:55.464Z,9.55
2023-06-21T14:35:22.555Z,8.43
2023-06-21T14:37:51.151Z,8.73
2023-06-21T14:40:18.278Z,8.48
2023-06-21T14:42:45.341Z,8.15
2023-06-21T14:45:12.293Z,8.70
2023-06-21T14:47:39.725Z,7.97
2023-06-21T14:50:07.661Z,8.65
2023-06-21T14:52:34.649Z,8.40
2023-06-21T14:55:01.871Z,8.15
2023-06-21T14:57:29.266Z,7.80
2023-06-21T14:59:57.161Z,8.15
2023-06-21T15:02:24.136Z,8.30
2023-06-21T15:04:51.078Z,7.95
2023-06-21T15:07:19.582Z,7.95
2023-06-21T15:09:47.321Z,8.23
2023-06-21T15:12:14.464Z,8.18
2023-06-21T15:14:41.563Z,7.93
2023-06-21T15:17:08.991Z,8.52
2023-06-21T15:19:36.126Z,8.00
2023-06-21T15:22:03.189Z,7.55
2023-06-21T15:24:30.267Z,7.60
2023-06-21T15:26:58.261Z,7.38
2023-06-21T15:29:25.167Z,7.25
2023-06-21T15:31:52.307Z,7.43
2023-06-21T15:34:19.380Z,6.93
2023-06-21T15:36:46.431Z,6.85
2023-06-21T15:39:13.552Z,7.05
2023-06-21T15:41:45.192Z,7.22
2023-06-21T15:44:12.534Z,7.38
2023-06-21T15:46:39.824Z,7.15
2023-06-21T15:49:06.968Z,7.32
2023-06-21T15:51:33.910Z,7.13
2023-06-21T15:54:00.999Z,6.80
2023-06-21T15:56:28.069Z,6.38
2023-06-21T15:58:55.043Z,6.65
2023-06-21T16:01:22.586Z,6.68
2023-06-21T16:03:50.852Z,6.60
2023-06-21T16:06:19.160Z,6.60
2023-06-21T16:08:47.498Z,6.85
2023-06-21T16:11:15.300Z,6.15
2023-06-21T16:16:13.560Z,7.18
2023-06-21T16:18:40.625Z,6.90
2023-06-21T16:21:07.635Z,6.97
2023-06-21T16:23:34.995Z,6.55
2023-06-21T16:26:02.109Z,6.85
2023-06-21T16:28:29.394Z,6.68
2023-06-21T16:30:56.412Z,6.78
2023-06-21T16:33:23.387Z,6.13
2023-06-21T16:35:50.405Z,6.63
2023-06-21T16:38:19.896Z,7.00
2023-06-21T16:40:47.327Z,6.87
2023-06-21T16:43:15.043Z,6.32
2023-06-21T16:45:42.068Z,6.38
2023-06-21T16:48:09.112Z,6.32
2023-06-21T16:50:36.365Z,5.85
2023-06-21T16:53:03.483Z,5.80
2023-06-21T16:55:30.851Z,6.82
2023-06-21T16:57:58.408Z,6.20
2023-06-21T17:00:25.419Z,6.82
2023-06-21T17:02:54.657Z,5.80
2023-06-21T17:05:24.920Z,5.90
2023-06-21T17:07:52.953Z,5.82
2023-06-21T17:10:20.456Z,5.63
2023-06-21T17:12:47.994Z,6.60
2023-06-21T17:15:15.303Z,5.40
2023-06-21T17:17:43.337Z,5.60
2023-06-21T17:20:11.477Z,5.47
2023-06-21T17:22:38.778Z,5.50
2023-06-21T17:25:06.409Z,5.45
2023-06-21T17:27:33.686Z,5.95
2023-06-21T17:30:00.659Z,5.65
2023-06-21T17:32:28.206Z,5.72
2023-06-21T17:34:55.318Z,5.60
2023-06-21T17:37:22.384Z,5.43
2023-06-21T17:39:49.415Z,5.88
2023-06-21T17:42:16.524Z,5.35
2023-06-21T17:44:43.767Z,5.35
2023-06-21T17:47:11.531Z,5.18
2023-06-21T17:49:38.541Z,5.32
2023-06-21T17:52:06.035Z,5.78
2023-06-21T17:54:33.889Z,5.68
2023-06-21T17:57:01.056Z,5.35
2023-06-21T17:59:29.753Z,5.07
2023-06-21T18:01:56.940Z,5.43
2023-06-21T18:04:24.086Z,5.40
2023-06-21T18:06:51.280Z,5.13
2023-06-21T18:09:18.477Z,5.35
2023-06-21T18:11:45.519Z,5.25
2023-06-21T18:14:13.714Z,6.20
2023-06-21T18:16:40.686Z,5.50
2023-06-21T18:19:07.673Z,5.68
2023-06-21T18:21:34.746Z,5.20
2023-06-21T18:24:15.487Z,6.50
2023-06-21T18:26:42.704Z,5.28
2023-06-21T18:29:09.642Z,5.80
2023-06-21T18:31:36.661Z,6.10
2023-06-21T18:34:03.683Z,5.78
2023-06-21T18:36:30.589Z,5.50
2023-06-21T18:38:57.602Z,6.20
2023-06-21T18:41:24.953Z,5.72
2023-06-21T18:43:52.546Z,6.20
2023-06-21T18:46:19.548Z,6.10
2023-06-21T18:48:48.687Z,6.10
2023-06-21T18:51:15.720Z,6.55
2023-06-21T18:53:42.734Z,5.75
2023-06-21T18:56:09.709Z,6.90
2023-06-21T18:58:38.790Z,6.85
2023-06-21T19:01:05.763Z,7.50
2023-06-21T19:03:32.947Z,7.88
2023-06-21T19:06:00.032Z,7.68
2023-06-21T19:08:26.978Z,7.85
2023-06-21T19:10:54.025Z,7.70
2023-06-21T19:13:21.065Z,7.40
2023-06-21T19:15:48.059Z,7.70
2023-06-21T19:18:15.182Z,7.78
2023-06-21T19:20:42.198Z,7.10
2023-06-21T19:23:09.153Z,6.90
2023-06-21T19:25:36.143Z,8.02
2023-06-21T19:28:03.090Z,6.88
2023-06-21T19:30:30.440Z,7.18
2023-06-21T19:32:57.873Z,6.63
2023-06-21T19:35:24.858Z,6.97
2023-06-21T19:37:51.806Z,7.40
2023-06-21T19:40:18.863Z,7.20
2023-06-21T19:42:48.855Z,7.03
2023-06-21T19:45:16.421Z,6.63
2023-06-21T19:47:43.416Z,6.93
2023-06-21T19:50:13.351Z,7.32
2023-06-21T19:52:40.290Z,7.03
2023-06-21T19:55:08.052Z,7.95
2023-06-21T19:57:34.964Z,7.55
2023-06-21T20:00:01.989Z,7.50
2023-06-21T20:02:28.965Z,7.43
2023-06-21T20:04:58.845Z,8.25
2023-06-21T20:07:25.792Z,7.40
2023-06-21T20:09:53.149Z,8.43
2023-06-21T20:12:20.219Z,7.85
2023-06-21T20:14:47.421Z,7.93
2023-06-21T20:17:14.355Z,8.05
2023-06-21T20:19:41.404Z,8.50
2023-06-21T20:22:08.418Z,8.05
2023-06-21T20:24:35.414Z,8.00
2023-06-21T20:27:05.241Z,8.30
2023-06-21T20:29:32.182Z,8.60
2023-06-21T20:32:00.700Z,8.95
2023-06-21T20:34:27.651Z,8.43
2023-06-21T20:36:55.169Z,7.72
2023-06-21T20:39:22.434Z,8.80
2023-06-21T20:41:49.377Z,8.85
2023-06-21T20:44:18.508Z,8.38
2023-06-21T20:46:46.460Z,9.20
2023-06-21T20:49:13.516Z,9.25
2023-06-21T20:51:41.031Z,8.90
2023-06-21T20:54:12.400Z,8.90
2023-06-21T20:56:40.462Z,8.95
2023-06-21T20:59:08.191Z,9.05
2023-06-21T21:01:39.704Z,8.93
2023-06-21T21:04:08.680Z,8.57
2023-06-21T21:06:36.686Z,8.85
2023-06-21T21:09:03.906Z,9.02
2023-06-21T21:11:31.296Z,10.13
2023-06-21T21:14:01.518Z,10.75
2023-06-21T21:16:29.078Z,11.18
2023-06-21T21:18:55.998Z,12.23
2023-06-21T21:21:22.999Z,11.93
2023-06-21T21:23:51.694Z,12.25
2023-06-21T21:26:18.660Z,13.23
2023-06-21T21:28:45.779Z,13.75
2023-06-21T21:31:12.804Z,13.95
2023-06-21T21:33:39.784Z,14.50
2023-06-21T21:36:07.017Z,13.52
2023-06-21T21:38:34.223Z,13.30
2023-06-21T21:41:01.258Z,13.00
2023-06-21T21:43:28.181Z,12.75
2023-06-21T21:45:55.240Z,12.52
2023-06-21T21:48:22.205Z,12.02
2023-06-21T21:50:49.276Z,12.50
2023-06-21T21:53:16.263Z,12.45
2023-06-21T21:55:44.901Z,12.48
2023-06-21T21:58:12.776Z,11.75
2023-06-21T22:00:39.774Z,11.95
2023-06-21T22:03:07.241Z,11.35
2023-06-21T22:05:34.362Z,11.20
2023-06-21T22:08:01.376Z,11.63
2023-06-21T22:10:38.308Z,10.95
2023-06-21T22:13:10.705Z,11.52
2023-06-21T22:15:50.381Z,11.43
2023-06-21T22:18:17.965Z,11.48
2023-06-21T22:20:44.954Z,11.65
2023-06-21T22:23:12.503Z,12.43
2023-06-21T22:25:39.526Z,10.82
2023-06-21T22:28:06.526Z,11.52
2023-06-21T22:30:35.494Z,10.90
2023-06-21T22:33:02.636Z,10.85
2023-06-21T22:35:29.849Z,11.38
2023-06-21T22:37:56.851Z,11.10
2023-06-21T22:40:23.805Z,10.95
2023-06-21T22:42:50.749Z,11.23
2023-06-21T22:45:17.725Z,10.73
2023-06-21T22:47:44.764Z,11.52
2023-06-21T22:50:11.771Z,10.70
2023-06-21T22:52:39.182Z,11.10
2023-06-21T22:55:06.664Z,11.13
2023-06-21T22:57:33.619Z,11.10
2023-06-21T23:00:00.618Z,11.45
2023-06-21T23:02:27.680Z,11.32
2023-06-21T23:04:54.868Z,10.52
2023-06-21T23:07:22.346Z,10.63
2023-06-21T23:09:49.271Z,10.98
2023-06-21T23:12:16.188Z,10.30
2023-06-21T23:14:44.127Z,11.63
2023-06-21T23:17:13.391Z,10.77
2023-06-21T23:19:40.314Z,11.80
2023-06-21T23:22:07.308Z,11.30
2023-06-21T23:24:35.288Z,11.18
2023-06-21T23:27:07.925Z,11.02
2023-06-21T23:29:42.111Z,11.48
2023-06-21T23:32:10.677Z,11.45
2023-06-21T23:34:39.118Z,10.98
2023-06-21T23:37:06.417Z,11.50
2023-06-21T23:39:33.395Z,11.07
2023-06-21T23:42:00.390Z,11.55
2023-06-21T23:44:27.956Z,10.77
2023-06-21T23:46:54.957Z,11.10
2023-06-21T23:49:22.953Z,11.32
2023-06-21T23:51:53.302Z,11.18
2023-06-21T23:54:27.103Z,11.38
2023-06-21T23:56:54.342Z,11.57
2023-06-21T23:59:21.290Z,11.52
